Time;durP1;ratioP1;P1;durP2;ratioP2;P2;SDS_P1;SDS_P2;PMS_P1;PMS_P2;Temp;Humidity;BMP_temperature;BMP_pressure;BME280_temperature;BME280_humidity;BME280_pressure;Samples;Min_cycle;Max_cycle;Signal;HPM_P1;HPM_P2
2022/06/25 00:01:27;;;;;;;9.23;5.55;;;;;;;22.21;62.67;97545.34;4503930;31;20159;-82
2022/06/25 00:03:54;;;;;;;15.15;6.03;;;;;;;22.16;63.25;97542.34;4503743;31;20132;-82
2022/06/25 00:06:22;;;;;;;9.98;5.78;;;;;;;22.15;62.84;97543.31;4503357;31;20084;-82
2022/06/25 00:08:53;;;;;;;13.02;5.82;;;;;;;22.20;63.11;97542.84;4503593;31;20107;-82
2022/06/25 00:14:08;;;;;;;9.15;5.45;;;;;;;22.66;61.33;97560.19;4503755;31;20163;-82
2022/06/25 00:16:36;;;;;;;10.43;5.10;;;;;;;21.70;65.21;97564.34;4503347;31;20107;-82
2022/06/25 00:19:04;;;;;;;9.18;5.35;;;;;;;21.39;65.33;97549.84;4503450;31;20111;-82
2022/06/25 00:21:31;;;;;;;11.60;4.95;;;;;;;22.08;63.54;97557.19;4503707;31;20151;-82
2022/06/25 00:23:58;;;;;;;9.43;4.97;;;;;;;22.03;62.92;97552.38;4503696;31;20141;-82
2022/06/25 00:26:27;;;;;;;8.82;5.40;;;;;;;21.59;64.14;97547.00;4503093;31;20144;-82
2022/06/25 00:28:54;;;;;;;9.50;4.87;;;;;;;21.68;64.86;97550.50;4502430;31;20122;-82
2022/06/25 00:31:21;;;;;;;10.55;5.18;;;;;;;21.91;64.01;97537.81;4502405;31;20118;-82
2022/06/25 00:33:48;;;;;;;9.93;5.25;;;;;;;21.88;63.16;97540.72;4503354;31;20092;-82
2022/06/25 00:36:15;;;;;;;12.63;5.70;;;;;;;22.05;63.56;97537.28;4503377;31;20141;-82
2022/06/25 00:38:42;;;;;;;11.90;5.37;;;;;;;21.75;64.42;97538.44;4503603;31;20588;-82
2022/06/25 00:41:09;;;;;;;9.35;5.37;;;;;;;21.39;65.67;97540.19;4503241;31;20131;-82
2022/06/25 00:43:40;;;;;;;10.05;5.37;;;;;;;21.47;65.61;97540.25;4503580;31;20342;-82
2022/06/25 00:46:07;;;;;;;10.27;5.32;;;;;;;22.02;63.76;97547.28;4503400;31;20116;-82
2022/06/25 00:48:34;;;;;;;10.27;5.75;;;;;;;22.20;63.31;97548.13;4503137;31;20504;-82
2022/06/25 00:51:08;;;;;;;12.93;5.60;;;;;;;22.16;62.86;97546.78;4503365;31;20171;-82
2022/06/25 00:53:36;;;;;;;10.60;5.40;;;;;;;21.87;63.87;97536.44;4503232;31;20123;-82
2022/06/25 00:56:05;;;;;;;10.55;5.62;;;;;;;22.09;63.69;97535.22;4502140;31;20457;-82
2022/06/25 00:58:33;;;;;;;9.68;5.60;;;;;;;22.28;63.82;97547.37;4503405;31;20098;-82
2022/06/25 01:01:00;;;;;;;10.43;5.70;;;;;;;22.12;64.12;97545.44;4503110;31;20096;-82
2022/06/25 01:03:27;;;;;;;11.60;6.03;;;;;;;21.50;66.82;97541.78;4503449;31;20088;-82
2022/06/25 01:05:55;;;;;;;11.25;5.30;;;;;;;21.58;65.64;97542.69;4503362;31;20119;-82
2022/06/25 01:08:22;;;;;;;10.48;5.65;;;;;;;22.05;63.93;97550.41;4502853;31;20088;-82
2022/06/25 01:10:49;;;;;;;10.50;5.68;;;;;;;22.11;63.42;97544.59;4503361;31;20126;-82
2022/06/25 01:13:21;;;;;;;9.07;5.30;;;;;;;22.00;64.29;97555.28;4503380;31;20136;-82
2022/06/25 01:15:49;;;;;;;10.63;5.90;;;;;;;22.38;63.49;97551.56;4502253;31;20134;-82
2022/06/25 01:18:16;;;;;;;12.45;6.10;;;;;;;22.51;63.16;97557.25;4502891;31;20080;-82
2022/06/25 01:20:44;;;;;;;10.27;6.12;;;;;;;21.98;64.58;97549.34;4503257;31;20156;-82
2022/06/25 01:23:12;;;;;;;10.18;6.05;;;;;;;20.98;68.02;97552.72;4502932;31;20111;-82
2022/06/25 01:25:41;;;;;;;11.80;6.37;;;;;;;21.77;64.72;97551.44;4503125;31;20105;-82
2022/06/25 01:28:08;;;;;;;10.93;6.03;;;;;;;21.78;64.76;97545.19;4502996;31;20088;-82
2022/06/25 01:30:35;;;;;;;10.77;6.30;;;;;;;21.67;65.92;97548.84;4502832;31;20496;-82
2022/06/25 01:33:05;;;;;;;11.10;6.10;;;;;;;22.02;64.58;97544.66;4503196;31;20135;-82
2022/06/25 01:35:32;;;;;;;12.43;5.87;;;;;;;22.61;62.91;97548.47;4501572;31;20181;-82
2022/06/25 01:37:59;;;;;;;11.82;6.03;;;;;;;22.05;65.11;97541.72;4503060;31;20199;-82
2022/06/25 01:40:26;;;;;;;12.05;6.00;;;;;;;21.60;67.18;97543.38;4503228;31;20100;-82
2022/06/25 01:43:00;;;;;;;11.65;5.75;;;;;;;22.24;65.07;97544.22;4502744;31;20160;-82
2022/06/25 01:45:33;;;;;;;10.63;6.25;;;;;;;22.46;64.10;97543.75;4503026;31;20112;-82
2022/06/25 01:48:00;;;;;;;11.90;6.03;;;;;;;22.09;66.58;97529.94;4502817;31;20520;-82
2022/06/25 01:50:29;;;;;;;11.50;5.82;;;;;;;22.02;66.84;97534.97;4502613;31;20449;-82
2022/06/25 01:52:56;;;;;;;9.80;5.80;;;;;;;22.47;65.34;97537.53;4503038;31;20096;-82
2022/06/25 01:55:23;;;;;;;10.85;5.65;;;;;;;22.61;64.88;97528.25;4502808;31;20151;-82
2022/06/25 01:57:50;;;;;;;10.75;5.85;;;;;;;22.37;65.94;97531.53;4502487;31;20114;-82
2022/06/25 02:00:21;;;;;;;9.52;5.80;;;;;;;21.92;67.82;97516.66;4501692;31;20135;-82
2022/06/25 02:02:48;;;;;;;10.07;6.03;;;;;;;22.23;66.60;97518.94;4502911;31;20092;-82
2022/06/25 02:05:18;;;;;;;11.48;6.40;;;;;;;22.27;65.97;97525.53;4502374;31;20155;-82
2022/06/25 02:07:45;;;;;;;9.88;6.10;;;;;;;22.61;62.76;97532.69;4502628;31;20091;-82
2022/06/25 02:10:12;;;;;;;12.32;6.65;;;;;;;22.06;64.95;97525.84;4502694;31;20148;-82
2022/06/25 02:12:39;;;;;;;9.73;5.97;;;;;;;22.35;65.14;97537.91;4502382;31;20144;-82
2022/06/25 02:15:07;;;;;;;10.82;5.93;;;;;;;22.07;66.33;97535.38;4502556;31;20117;-82
2022/06/25 02:17:34;;;;;;;10.40;6.25;;;;;;;21.77;67.97;97541.75;4501996;31;20099;-82
2022/06/25 02:20:01;;;;;;;11.18;6.12;;;;;;;22.09;66.72;97543.09;4502587;31;20110;-82
2022/06/25 02:22:28;;;;;;;11.57;6.28;;;;;;;21.91;66.41;97541.25;4502510;31;20181;-82
2022/06/25 02:24:56;;;;;;;11.27;6.78;;;;;;;21.34;68.32;97551.09;4502114;31;20143;-82
2022/06/25 02:27:23;;;;;;;11.38;6.35;;;;;;;20.85;72.41;97556.63;4502477;31;20155;-82
2022/06/25 02:29:50;;;;;;;11.52;6.97;;;;;;;20.07;75.52;97566.28;4504356;31;20106;-82
2022/06/25 02:32:17;;;;;;;10.98;6.57;;;;;;;19.68;77.46;97576.69;4504192;31;20156;-82
2022/06/25 02:34:44;;;;;;;12.63;7.15;;;;;;;19.89;75.98;97581.84;4504429;31;20174;-82
2022/06/25 02:37:11;;;;;;;11.57;7.18;;;;;;;19.85;76.35;97567.34;4504427;31;20144;-82
2022/06/25 02:39:38;;;;;;;11.25;7.07;;;;;;;19.85;76.26;97562.13;4504038;31;20143;-82
2022/06/25 02:42:05;;;;;;;12.43;7.32;;;;;;;20.33;73.96;97570.03;4504335;31;20087;-82
2022/06/25 02:44:32;;;;;;;11.23;7.03;;;;;;;20.32;74.34;97564.94;4504396;31;20140;-82
2022/06/25 02:46:59;;;;;;;11.35;6.75;;;;;;;20.73;72.43;97558.56;4503999;31;20580;-82
2022/06/25 02:49:26;;;;;;;15.00;7.15;;;;;;;21.41;69.25;97568.91;4504244;31;20471;-82
2022/06/25 02:51:53;;;;;;;10.07;6.82;;;;;;;21.48;68.59;97583.94;4504348;31;20465;-82
2022/06/25 02:54:20;;;;;;;10.90;6.68;;;;;;;21.49;68.31;97579.50;4504021;31;20354;-82
2022/06/25 02:59:33;;;;;;;12.45;6.87;;;;;;;21.29;69.34;97594.50;4504094;31;20427;-81
2022/06/25 03:02:00;;;;;;;12.18;6.72;;;;;;;20.91;71.15;97600.63;4504159;31;20110;-82
2022/06/25 03:04:27;;;;;;;10.82;6.82;;;;;;;21.21;70.05;97604.84;4504174;31;20151;-82
2022/06/25 03:06:54;;;;;;;12.30;6.97;;;;;;;21.64;68.44;97606.91;4503915;31;20076;-82
2022/06/25 03:09:21;;;;;;;12.07;6.70;;;;;;;21.09;70.05;97610.25;4504120;31;20104;-82
2022/06/25 03:11:49;;;;;;;11.02;6.50;;;;;;;21.52;68.97;97616.78;4503016;31;20175;-82
2022/06/25 03:14:16;;;;;;;12.13;6.93;;;;;;;21.29;69.87;97618.09;4503791;31;20087;-82
2022/06/25 03:16:45;;;;;;;10.95;6.70;;;;;;;21.15;70.03;97614.09;4503817;31;20127;-82
2022/06/25 03:19:12;;;;;;;13.00;6.82;;;;;;;21.08;70.19;97620.91;4504302;31;20076;-82
2022/06/25 03:21:39;;;;;;;14.50;7.00;;;;;;;20.79;71.27;97621.75;4503754;31;20121;-81
2022/06/25 03:24:06;;;;;;;17.65;7.05;;;;;;;20.85;72.63;97630.06;4504111;31;20452;-81
2022/06/25 03:26:34;;;;;;;14.38;6.85;;;;;;;20.93;74.97;97624.91;4503984;31;20167;-81
2022/06/25 03:29:02;;;;;;;13.40;6.82;;;;;;;20.80;77.24;97622.59;4503725;31;20152;-81
2022/06/25 03:31:30;;;;;;;15.52;6.87;;;;;;;20.99;77.18;97640.09;4504081;31;20084;-81
2022/06/25 03:33:57;;;;;;;12.93;5.72;;;;;;;21.07;77.10;97630.56;4504014;31;20155;-81
2022/06/25 03:36:24;;;;;;;14.87;6.10;;;;;;;21.23;77.17;97632.59;4503549;31;20142;-81
2022/06/25 03:38:51;;;;;;;14.95;6.25;;;;;;;21.55;75.32;97626.16;4503724;31;20131;-82
2022/06/25 03:41:33;;;;;;;13.00;6.37;;;;;;;21.41;75.97;97629.25;4503924;31;20712;-82
2022/06/25 03:44:00;;;;;;;12.98;6.03;;;;;;;21.36;75.80;97643.63;4503717;31;20132;-82
2022/06/25 03:46:27;;;;;;;11.00;6.05;;;;;;;21.42;75.84;97647.47;4503768;31;20111;-82
2022/06/25 03:48:54;;;;;;;10.48;5.07;;;;;;;21.54;75.06;97645.50;4503556;31;20421;-81
2022/06/25 03:51:21;;;;;;;9.77;4.22;;;;;;;21.29;75.28;97647.81;4503901;31;20152;-81
2022/06/25 03:53:48;;;;;;;8.70;4.05;;;;;;;21.06;75.89;97646.44;4503920;31;20151;-81
2022/06/25 03:56:15;;;;;;;9.55;3.95;;;;;;;21.14;75.46;97643.91;4503344;31;20467;-81
2022/06/25 03:58:42;;;;;;;9.07;3.50;;;;;;;20.82;77.22;97644.25;4503881;31;20079;-82
2022/06/25 04:01:09;;;;;;;6.70;3.22;;;;;;;20.78;77.55;97656.81;4503902;31;20140;-81
2022/06/25 04:03:36;;;;;;;10.10;4.03;;;;;;;20.70;77.98;97661.91;4502297;31;20118;-81
2022/06/25 04:06:03;;;;;;;6.53;3.28;;;;;;;21.08;76.73;97655.81;4503589;31;20096;-81
2022/06/25 04:08:30;;;;;;;9.30;3.72;;;;;;;21.33;75.69;97659.66;4503683;31;20092;-81
2022/06/25 04:10:58;;;;;;;8.70;3.53;;;;;;;21.24;75.94;97649.16;4503328;31;20482;-81
2022/06/25 04:13:25;;;;;;;6.43;2.90;;;;;;;20.86;77.26;97650.88;4503739;31;20167;-81
2022/06/25 04:15:52;;;;;;;7.05;3.08;;;;;;;21.14;76.39;97651.78;4503592;31;20484;-81
2022/06/25 04:18:25;;;;;;;6.40;2.80;;;;;;;21.41;75.29;97664.19;4503142;31;20111;-81
2022/06/25 04:20:52;;;;;;;6.60;2.62;;;;;;;22.09;72.48;97671.81;4503711;31;20088;-81
2022/06/25 04:23:19;;;;;;;5.90;2.58;;;;;;;22.45;70.64;97681.44;4503664;31;20151;-81
2022/06/25 04:25:46;;;;;;;8.25;2.50;;;;;;;23.34;67.27;97677.94;4503255;31;20115;-81
2022/06/25 04:30:59;;;;;;;6.95;2.30;;;;;;;23.79;65.07;97700.59;4503386;31;20449;-81
2022/06/25 04:33:26;;;;;;;8.32;2.75;;;;;;;24.30;63.11;97699.66;4503731;31;20142;-81
2022/06/25 04:35:53;;;;;;;5.82;2.17;;;;;;;24.37;62.22;97706.00;4503403;31;20095;-81
2022/06/25 04:38:20;;;;;;;6.47;2.20;;;;;;;24.03;63.58;97700.75;4503292;31;20091;-81
2022/06/25 04:40:47;;;;;;;5.78;1.90;;;;;;;24.86;60.65;97699.97;4503608;31;20104;-81
2022/06/25 04:43:14;;;;;;;5.53;2.17;;;;;;;24.38;61.60;97698.91;4503611;31;20140;-81
2022/06/25 04:45:41;;;;;;;7.87;2.03;;;;;;;24.96;60.50;97712.00;4503108;31;20844;-81
2022/06/25 04:48:08;;;;;;;6.05;2.17;;;;;;;25.54;57.86;97710.22;4503471;31;20143;-81
2022/06/25 04:50:44;;;;;;;6.30;1.95;;;;;;;24.97;59.99;97733.94;4502693;31;20100;-81
2022/06/25 04:53:12;;;;;;;4.50;1.80;;;;;;;25.75;57.13;97725.56;4503253;31;20103;-81
2022/06/25 04:55:39;;;;;;;5.37;1.95;;;;;;;26.07;55.53;97724.66;4503467;31;20452;-81
2022/06/25 04:58:06;;;;;;;3.12;1.58;;;;;;;26.19;54.08;97721.44;4503493;31;20080;-81
2022/06/25 05:00:33;;;;;;;3.30;1.30;;;;;;;25.43;56.89;97715.84;4503065;31;20148;-80
2022/06/25 05:03:07;;;;;;;3.28;1.37;;;;;;;24.37;58.78;97724.44;4503554;31;20102;-80
2022/06/25 05:05:34;;;;;;;2.83;1.10;;;;;;;24.84;57.79;97729.16;4503248;31;20139;-81
2022/06/25 05:08:01;;;;;;;3.12;1.25;;;;;;;25.82;54.25;97726.53;4503113;31;20452;-81
2022/06/25 05:10:28;;;;;;;4.82;1.10;;;;;;;26.21;52.53;97731.84;4503396;31;20132;-81
2022/06/25 05:13:13;;;;;;;1.30;0.85;;;;;;;24.88;55.36;97734.94;4501844;31;20095;-81
2022/06/25 05:15:42;;;;;;;1.42;0.90;;;;;;;24.13;57.20;97724.31;4503257;31;20079;-81
2022/06/25 05:18:11;;;;;;;2.75;0.82;;;;;;;24.08;58.02;97735.34;4503048;31;20076;-81
2022/06/25 05:20:43;;;;;;;4.65;0.88;;;;;;;24.93;55.14;97748.47;4502950;31;20506;-81
2022/06/25 05:23:11;;;;;;;1.98;0.90;;;;;;;24.76;55.28;97745.78;4503269;31;20182;-81
2022/06/25 05:25:40;;;;;;;1.83;0.85;;;;;;;24.99;53.89;97735.47;4503107;31;20162;-81
2022/06/25 05:28:07;;;;;;;2.17;0.60;;;;;;;25.84;50.83;97732.44;4502866;31;20164;-80
2022/06/25 05:30:35;;;;;;;3.20;0.70;;;;;;;25.48;51.69;97727.53;4503064;31;20140;-81
2022/06/25 05:33:03;;;;;;;2.12;0.90;;;;;;;25.15;52.18;97715.34;4503280;31;20441;-81
2022/06/25 05:35:30;;;;;;;1.00;0.60;;;;;;;25.47;51.46;97728.53;4502690;31;20134;-81
2022/06/25 05:38:03;;;;;;;1.08;0.57;;;;;;;25.92;49.99;97735.91;4503124;31;20132;-81
2022/06/25 05:40:30;;;;;;;0.50;0.50;;;;;;;25.94;49.78;97743.66;4503158;31;20111;-81
2022/06/25 05:42:57;;;;;;;3.22;0.80;;;;;;;25.93;49.67;97739.38;4502798;31;20147;-81
2022/06/25 05:45:24;;;;;;;2.92;0.77;;;;;;;25.78;50.32;97741.06;4502915;31;20166;-81
2022/06/25 05:47:51;;;;;;;4.80;0.93;;;;;;;26.28;48.89;97748.69;4503016;31;20084;-81
2022/06/25 05:50:18;;;;;;;0.50;0.47;;;;;;;26.20;48.69;97760.13;4502687;31;20181;-80
2022/06/25 05:52:45;;;;;;;1.80;0.70;;;;;;;25.54;50.01;97770.97;4503014;31;20165;-81
2022/06/25 05:55:12;;;;;;;0.98;0.62;;;;;;;24.98;51.99;97776.00;4502580;31;20126;-80
2022/06/25 05:57:39;;;;;;;3.05;0.60;;;;;;;24.40;53.38;97763.66;4502951;31;20119;-80
2022/06/25 06:00:08;;;;;;;1.20;0.60;;;;;;;25.02;51.70;97773.94;4502862;31;20151;-80
2022/06/25 06:02:35;;;;;;;0.90;0.50;;;;;;;24.67;52.75;97769.69;4502320;31;20131;-80
2022/06/25 06:05:02;;;;;;;0.73;0.62;;;;;;;24.34;53.46;97779.28;4502670;31;20154;-80
2022/06/25 06:07:29;;;;;;;1.83;0.62;;;;;;;24.22;54.20;97784.81;4502778;31;20148;-80
2022/06/25 06:09:57;;;;;;;1.90;0.70;;;;;;;24.14;54.55;97783.97;4502270;31;20084;-80
2022/06/25 06:12:24;;;;;;;1.50;0.65;;;;;;;24.93;52.51;97790.69;4502719;31;20110;-81
2022/06/25 06:14:51;;;;;;;1.85;0.40;;;;;;;25.56;51.03;97779.56;4502633;31;20155;-81
2022/06/25 06:17:18;;;;;;;1.52;0.62;;;;;;;25.74;49.61;97782.06;4501813;31;20076;-80
2022/06/25 06:19:45;;;;;;;3.20;0.68;;;;;;;25.07;51.44;97787.44;4502663;31;20139;-80
2022/06/25 06:22:12;;;;;;;0.47;0.47;;;;;;;24.97;51.73;97795.47;4502612;31;20164;-80
2022/06/25 06:24:44;;;;;;;1.42;0.70;;;;;;;24.59;52.83;97801.31;4502178;31;20448;-80
2022/06/25 06:27:11;;;;;;;0.77;0.60;;;;;;;24.99;51.75;97804.09;4502403;31;20104;-80
2022/06/25 06:29:38;;;;;;;0.98;0.60;;;;;;;25.20;51.74;97811.56;4502377;31;20111;-80
2022/06/25 06:32:05;;;;;;;1.67;0.60;;;;;;;24.90;52.07;97807.69;4502145;31;20163;-80
2022/06/25 06:34:32;;;;;;;0.93;0.52;;;;;;;24.19;54.12;97805.41;4502341;31;20473;-81
2022/06/25 06:36:59;;;;;;;1.25;0.50;;;;;;;23.97;55.30;97812.03;4502248;31;20403;-81
2022/06/25 06:39:26;;;;;;;2.28;0.70;;;;;;;24.30;54.28;97809.56;4502156;31;20497;-80
2022/06/25 06:41:53;;;;;;;0.93;0.57;;;;;;;24.13;54.48;97824.47;4502308;31;20109;-80
2022/06/25 06:44:20;;;;;;;0.93;0.60;;;;;;;24.51;53.94;97820.56;4501825;31;20079;-80
2022/06/25 06:46:47;;;;;;;0.70;0.60;;;;;;;24.22;54.53;97816.44;4502147;31;20096;-80
2022/06/25 06:49:14;;;;;;;3.60;0.68;;;;;;;24.38;53.91;97815.75;4502046;31;20183;-80
2022/06/25 06:51:41;;;;;;;3.72;0.60;;;;;;;24.18;54.10;97830.09;4501814;31;20100;-80
2022/06/25 06:54:08;;;;;;;2.72;0.65;;;;;;;24.49;53.46;97831.28;4502130;31;20099;-80
2022/06/25 06:56:35;;;;;;;0.90;0.70;;;;;;;24.14;53.96;97832.25;4501909;31;20382;-80
2022/06/25 06:59:03;;;;;;;1.65;0.57;;;;;;;23.90;55.02;97829.44;4501670;31;20104;-80
2022/06/25 07:01:30;;;;;;;0.70;0.60;;;;;;;23.79;55.83;97830.50;4502109;31;20156;-80
2022/06/25 07:03:57;;;;;;;1.15;0.50;;;;;;;23.93;55.15;97837.03;4501985;31;20163;-80
2022/06/25 07:06:24;;;;;;;1.50;0.68;;;;;;;23.98;55.22;97834.75;4501478;31;20106;-80
2022/06/25 07:08:51;;;;;;;2.42;0.80;;;;;;;24.40;53.90;97840.12;4501836;31;20429;-80
2022/06/25 07:11:29;;;;;;;1.17;0.65;;;;;;;24.53;53.61;97842.34;4502030;31;20110;-80
2022/06/25 07:14:06;;;;;;;1.60;0.85;;;;;;;24.19;54.76;97837.03;4501962;31;20092;-80
2022/06/25 07:16:34;;;;;;;;;;;;;;;24.93;52.19;97835.56;4504441;31;20672;-80
2022/06/25 07:19:01;;;;;;;;;;;;;;;24.58;53.27;97829.53;4504676;31;19976;-80
2022/06/25 07:21:28;;;;;;;2.05;0.60;;;;;;;24.75;53.47;97833.84;4503963;31;20011;-80
2022/06/25 07:23:55;;;;;;;1.50;0.75;;;;;;;25.41;51.78;97844.56;4504183;31;20080;-80
2022/06/25 07:26:23;;;;;;;1.33;0.60;;;;;;;25.82;50.06;97833.06;4503678;31;20441;-80
2022/06/25 07:28:53;;;;;;;0.50;0.50;;;;;;;25.73;49.96;97839.31;4504116;31;20155;-80
2022/06/25 07:31:21;;;;;;;0.77;0.50;;;;;;;25.71;50.66;97840.50;4504097;31;20147;-80
2022/06/25 07:33:49;;;;;;;0.50;0.50;;;;;;;25.84;49.42;97843.44;4503820;31;20084;-80
2022/06/25 07:36:16;;;;;;;1.20;0.50;;;;;;;26.24;48.96;97839.91;4503916;31;20402;-80
2022/06/25 07:38:43;;;;;;;1.50;0.70;;;;;;;26.80;48.58;97844.22;4504054;31;20159;-81
2022/06/25 07:41:10;;;;;;;4.30;0.60;;;;;;;27.02;46.56;97834.72;4503680;31;20357;-80
2022/06/25 07:43:37;;;;;;;3.58;0.80;;;;;;;26.80;47.62;97832.81;4504038;31;20100;-80
2022/06/25 07:46:04;;;;;;;0.65;0.65;;;;;;;26.08;49.24;97843.44;4503736;31;20111;-81
2022/06/25 07:48:31;;;;;;;1.45;0.70;;;;;;;26.07;49.12;97836.50;4503579;31;20193;-80
2022/06/25 07:53:44;;;;;;;0.50;0.50;;;;;;;25.45;50.88;97836.19;4503952;31;20099;-81
2022/06/25 07:56:11;;;;;;;1.60;0.68;;;;;;;24.48;53.32;97842.81;4503509;31;20084;-81
2022/06/25 07:58:38;;;;;;;1.60;0.60;;;;;;;24.99;53.43;97848.09;4503797;31;20131;-80
2022/06/25 08:01:05;;;;;;;3.17;0.50;;;;;;;25.30;51.34;97851.81;4503908;31;20433;-80
2022/06/25 08:03:33;;;;;;;2.97;0.70;;;;;;;25.45;51.26;97851.19;4503573;31;20103;-80
2022/06/25 08:06:00;;;;;;;0.80;0.75;;;;;;;25.14;51.67;97851.00;4503666;31;20107;-80
2022/06/25 08:08:27;;;;;;;1.50;0.73;;;;;;;25.06;51.73;97847.34;4503490;31;20132;-80
2022/06/25 08:10:54;;;;;;;2.05;0.90;;;;;;;25.29;51.38;97855.47;4503647;31;20091;-81
2022/06/25 08:13:22;;;;;;;1.27;0.80;;;;;;;25.08;52.35;97849.81;4503811;31;20167;-81
2022/06/25 08:15:50;;;;;;;0.90;0.70;;;;;;;24.78;52.54;97852.03;4503228;31;20152;-81
2022/06/25 08:18:17;;;;;;;2.62;0.93;;;;;;;24.15;53.81;97862.06;4503567;31;20462;-81
2022/06/25 08:20:45;;;;;;;2.15;0.70;;;;;;;24.61;53.76;97865.28;4503836;31;20116;-81
2022/06/25 08:23:12;;;;;;;1.15;0.70;;;;;;;24.91;52.96;97866.56;4503405;31;20231;-80
2022/06/25 08:25:39;;;;;;;2.65;0.60;;;;;;;26.10;50.53;97854.66;4503504;31;20132;-81
2022/06/25 08:28:06;;;;;;;0.85;0.60;;;;;;;26.89;47.64;97857.41;4503726;31;20096;-80
2022/06/25 08:30:34;;;;;;;2.35;0.70;;;;;;;26.51;48.40;97859.87;4503238;31;20123;-80
2022/06/25 08:33:01;;;;;;;1.00;0.60;;;;;;;26.44;49.04;97861.56;4503645;31;20103;-80
2022/06/25 08:35:28;;;;;;;0.52;0.52;;;;;;;26.44;47.12;97861.56;4503448;31;20080;-80
2022/06/25 08:37:56;;;;;;;2.05;0.60;;;;;;;25.85;49.76;97861.81;4503218;31;20155;-80
2022/06/25 08:40:23;;;;;;;1.77;0.50;;;;;;;25.75;50.12;97862.97;4503674;31;20451;-80
2022/06/25 08:42:50;;;;;;;1.17;0.45;;;;;;;25.93;49.79;97871.53;4503604;31;20103;-80
2022/06/25 08:45:18;;;;;;;0.80;0.50;;;;;;;26.16;49.19;97872.50;4503138;31;20422;-80
2022/06/25 08:47:50;;;;;;;2.37;0.60;;;;;;;27.13;48.06;97875.03;4503487;31;20100;-80
2022/06/25 08:50:21;;;;;;;0.45;0.45;;;;;;;27.09;47.41;97871.91;4503543;31;20148;-81
2022/06/25 08:52:51;;;;;;;1.15;0.50;;;;;;;27.04;46.92;97868.94;4503645;31;20084;-81
2022/06/25 08:55:38;;;;;;;0.73;0.60;;;;;;;26.72;46.96;97875.19;4503381;31;20147;-80
2022/06/25 08:58:07;;;;;;;0.90;0.50;;;;;;;27.24;46.90;97877.28;4503166;31;20115;-81
2022/06/25 09:00:36;;;;;;;1.15;0.50;;;;;;;27.15;45.91;97883.63;4503516;31;20679;-80
2022/06/25 09:03:04;;;;;;;1.65;0.60;;;;;;;27.22;46.78;97889.84;4503487;31;20098;-81
2022/06/25 09:05:33;;;;;;;1.87;0.70;;;;;;;27.37;45.41;97885.47;4503052;31;20072;-81
2022/06/25 09:08:02;;;;;;;1.65;0.52;;;;;;;27.13;45.61;97883.81;4503439;31;20144;-81
2022/06/25 09:10:30;;;;;;;0.98;0.30;;;;;;;26.79;46.54;97897.31;4503299;31;20159;-80
2022/06/25 09:12:58;;;;;;;0.50;0.40;;;;;;;26.70;46.28;97891.25;4503024;31;20167;-80
2022/06/25 09:15:33;;;;;;;0.82;0.40;;;;;;;26.80;47.81;97891.06;4503319;31;20076;-80
2022/06/25 09:18:11;;;;;;;1.25;0.50;;;;;;;26.75;46.25;97883.59;4503029;31;20111;-81
2022/06/25 09:21:04;;;;;;;1.00;0.47;;;;;;;27.01;45.79;97898.37;4503072;31;20201;-81
2022/06/25 09:23:54;;;;;;;0.85;0.50;;;;;;;27.20;45.70;97892.69;4503320;31;20167;-81
2022/06/25 09:26:21;;;;;;;0.90;0.50;;;;;;;27.09;45.61;97898.37;4502728;31;20123;-80
2022/06/25 09:28:48;;;;;;;1.37;0.57;;;;;;;27.32;45.34;97893.94;4503225;31;20160;-81
2022/06/25 09:31:34;;;;;;;1.37;0.50;;;;;;;27.77;44.39;97900.31;4503078;31;20426;-81
2022/06/25 09:34:04;;;;;;;0.85;0.40;;;;;;;27.95;43.72;97897.31;4502816;31;20170;-80
2022/06/25 09:36:31;;;;;;;1.33;0.40;;;;;;;27.80;44.79;97894.62;4502456;31;20139;-81
2022/06/25 09:38:58;;;;;;;0.57;0.50;;;;;;;28.00;43.57;97897.63;4503188;31;20176;-81
2022/06/25 09:41:25;;;;;;;1.37;0.45;;;;;;;28.28;43.51;97894.38;4502807;31;20162;-81
2022/06/25 09:43:52;;;;;;;1.48;0.50;;;;;;;28.71;42.83;97892.75;4503107;31;20144;-82
2022/06/25 09:46:19;;;;;;;0.60;0.52;;;;;;;28.62;43.21;97897.37;4502980;31;20114;-81
2022/06/25 09:48:46;;;;;;;0.95;0.40;;;;;;;28.61;42.55;97895.72;4502742;31;20106;-81
2022/06/25 09:51:14;;;;;;;1.67;0.50;;;;;;;28.11;42.92;97901.66;4502986;31;20452;-81
2022/06/25 09:53:56;;;;;;;1.25;0.60;;;;;;;28.53;42.35;97903.75;4502755;31;20098;-81
2022/06/25 09:56:29;;;;;;;0.60;0.50;;;;;;;28.30;42.88;97893.22;4502950;31;20095;-81
2022/06/25 09:58:56;;;;;;;0.47;0.40;;;;;;;28.21;43.29;97899.59;4502906;31;20562;-81
2022/06/25 10:01:28;;;;;;;2.37;0.50;;;;;;;28.18;43.19;97890.16;4502656;31;20140;-81
2022/06/25 10:03:55;;;;;;;1.00;0.60;;;;;;;27.99;44.55;97903.09;4502991;31;20080;-80
2022/06/25 10:06:23;;;;;;;0.70;0.50;;;;;;;27.09;45.89;97893.06;4502671;31;20493;-80
2022/06/25 10:08:53;;;;;;;0.43;0.40;;;;;;;27.58;44.44;97901.56;4502429;31;20160;-81
2022/06/25 10:11:26;;;;;;;1.08;0.40;;;;;;;27.61;45.03;97889.78;4501418;31;20172;-81
2022/06/25 10:13:53;;;;;;;0.95;0.50;;;;;;;28.33;44.01;97887.56;4502834;31;20083;-81
2022/06/25 10:16:21;;;;;;;0.55;0.50;;;;;;;28.40;43.76;97898.28;4502223;31;20103;-81
2022/06/25 10:18:49;;;;;;;1.12;0.47;;;;;;;28.52;42.61;97881.72;4502635;31;20134;-82
2022/06/25 10:21:22;;;;;;;3.35;0.55;;;;;;;28.92;42.19;97895.50;4502658;31;20410;-81
2022/06/25 10:23:52;;;;;;;1.65;0.40;;;;;;;28.81;41.63;97883.50;4502359;31;20085;-81
2022/06/25 10:26:20;;;;;;;0.68;0.50;;;;;;;29.38;41.50;97882.78;4501372;31;20080;-82
2022/06/25 10:28:48;;;;;;;1.45;0.40;;;;;;;29.64;38.60;97887.56;4501063;31;20143;-81
2022/06/25 10:31:17;;;;;;;0.30;0.30;;;;;;;28.77;40.18;97878.75;4502436;31;20442;-82
2022/06/25 10:33:58;;;;;;;1.25;0.50;;;;;;;28.35;40.23;97863.47;4501325;31;20434;-82
2022/06/25 10:36:48;;;;;;;0.30;0.30;;;;;;;28.16;42.05;97872.75;4502050;31;20083;-81
2022/06/25 10:39:33;;;;;;;0.65;0.35;;;;;;;28.51;42.41;97869.44;4502446;31;20144;-81
2022/06/25 10:45:04;;;;;;;1.15;0.52;;;;;;;27.94;43.30;97869.97;4501992;31;20098;-81
2022/06/25 10:47:43;;;;;;;1.23;0.45;;;;;;;27.90;43.84;97867.87;4502168;31;20128;-80
2022/06/25 10:50:22;;;;;;;0.88;0.40;;;;;;;27.11;46.21;97861.94;4503338;31;20096;-80
2022/06/25 10:53:05;;;;;;;2.03;0.68;;;;;;;27.13;45.63;97867.91;4504394;31;20421;-80
2022/06/25 10:55:56;;;;;;;0.95;0.57;;;;;;;27.36;45.42;97875.88;4504442;31;20084;-81
2022/06/25 10:58:25;;;;;;;1.05;0.50;;;;;;;27.87;43.99;97884.97;4503980;31;20152;-81
2022/06/25 11:00:54;;;;;;;0.32;0.32;;;;;;;28.33;42.63;97870.81;4504301;31;20141;-81
2022/06/25 11:03:27;;;;;;;2.10;0.50;;;;;;;28.62;42.16;97868.16;4504286;31;20156;-81
2022/06/25 11:05:56;;;;;;;1.95;0.50;;;;;;;28.56;40.75;97870.72;4503824;31;20096;-81
2022/06/25 11:08:36;;;;;;;0.32;0.32;;;;;;;28.44;40.68;97854.44;4503088;31;20159;-81
2022/06/25 11:11:03;;;;;;;3.30;0.55;;;;;;;27.25;43.05;97855.91;4503809;31;20444;-81
2022/06/25 11:13:30;;;;;;;2.08;0.57;;;;;;;27.32;44.01;97848.06;4504249;31;20092;-81
2022/06/25 11:15:57;;;;;;;1.08;0.80;;;;;;;27.97;42.05;97860.88;4504166;31;20122;-82
2022/06/25 11:18:25;;;;;;;0.40;0.40;;;;;;;28.34;41.50;97860.00;4503567;31;20111;-81
2022/06/25 11:20:52;;;;;;;0.40;0.40;;;;;;;28.53;41.02;97856.81;4504175;31;20155;-82
2022/06/25 11:23:18;;;;;;;0.47;0.47;;;;;;;28.24;41.06;97857.59;4504175;31;20453;-81
2022/06/25 11:28:48;;;;;;;0.60;0.50;;;;;;;28.15;41.03;97861.31;4504021;31;20076;-81
2022/06/25 11:31:19;;;;;;;3.62;0.60;;;;;;;28.34;41.26;97862.66;4504070;31;20147;-81
2022/06/25 11:33:47;;;;;;;0.85;0.32;;;;;;;28.38;42.61;97863.94;4503686;31;20103;-81
2022/06/25 11:36:14;;;;;;;1.83;0.40;;;;;;;28.64;40.45;97860.00;4502721;31;20102;-82
2022/06/25 11:38:43;;;;;;;1.75;0.68;;;;;;;28.64;40.31;97858.19;4504028;31;20118;-81
2022/06/25 11:41:20;;;;;;;0.50;0.50;;;;;;;28.15;41.29;97856.03;4503968;31;20108;-81
2022/06/25 11:43:47;;;;;;;0.65;0.35;;;;;;;29.07;39.44;97847.69;4504132;31;20116;-82
2022/06/25 11:46:18;;;;;;;1.27;0.40;;;;;;;29.24;39.03;97859.75;4502326;31;20107;-81
2022/06/25 11:48:50;;;;;;;1.08;0.45;;;;;;;29.16;38.56;97846.56;4504046;31;20075;-81
2022/06/25 11:51:24;;;;;;;1.15;0.50;;;;;;;29.37;39.73;97851.09;4502767;31;20115;-82
2022/06/25 11:53:55;;;;;;;0.80;0.30;;;;;;;29.35;38.03;97847.81;4503610;31;20104;-82
2022/06/25 11:56:22;;;;;;;1.62;0.55;;;;;;;29.27;39.89;97834.63;4502540;31;20096;-81